createdAt,value
2022-12-04T02:37:06.419Z,0.30
2022-12-04T02:38:21.137Z,0.30
2022-12-04T02:39:29.034Z,0.40
2022-12-04T02:40:40.169Z,0.30
2022-12-04T02:41:49.815Z,0.30
2022-12-04T02:42:58.590Z,0.30
2022-12-04T02:44:06.677Z,0.30
2022-12-04T02:45:12.116Z,0.30
2022-12-04T02:46:22.574Z,0.20
2022-12-04T02:47:35.388Z,0.20
2022-12-04T02:48:47.343Z,0.20
2022-12-04T03:15:47.445Z,0.30
2022-12-04T05:02:51.764Z,0.60
2022-12-04T05:06:36.317Z,0.60
2022-12-04T05:10:07.054Z,0.50
2022-12-04T05:11:54.169Z,0.50
2022-12-04T05:13:56.533Z,0.50
2022-12-04T05:15:58.147Z,0.50
2022-12-04T05:35:46.766Z,0.50
2022-12-04T05:36:49.754Z,0.60
2022-12-04T05:37:53.405Z,0.60
2022-12-04T05:38:55.858Z,0.60
2022-12-04T05:40:00.633Z,0.70
2022-12-04T05:41:05.148Z,0.70
2022-12-04T05:42:08.561Z,0.70
2022-12-04T05:43:10.973Z,0.70
2022-12-04T05:44:14.419Z,0.70
2022-12-04T05:45:18.070Z,0.70
2022-12-04T05:50:12.134Z,0.70
2022-12-04T05:51:14.630Z,0.70
2022-12-04T05:52:18.363Z,0.70
2022-12-04T05:53:20.764Z,0.70
2022-12-04T05:54:27.611Z,0.70
2022-12-04T05:55:31.704Z,0.70
2022-12-04T06:26:27.047Z,0.70
2022-12-04T06:27:31.380Z,0.70
2022-12-04T06:28:35.053Z,0.70
2022-12-04T06:29:37.595Z,0.70
2022-12-04T06:30:41.098Z,0.70
2022-12-04T06:39:30.454Z,0.60
2022-12-04T07:01:21.351Z,0.60
2022-12-04T07:03:13.717Z,0.60
2022-12-04T07:18:16.607Z,0.60
2022-12-04T07:21:00.604Z,0.60
2022-12-04T09:41:12.262Z,1.70
2022-12-04T09:44:22.856Z,1.80
2022-12-04T10:02:22.748Z,1.60
2022-12-04T10:03:32.898Z,1.60
2022-12-04T10:04:36.563Z,1.60
2022-12-04T10:06:03.088Z,1.70
2022-12-04T10:07:14.311Z,1.80
2022-12-04T10:08:31.756Z,1.90
2022-12-04T10:09:55.138Z,1.90
2022-12-04T10:11:11.143Z,1.90
2022-12-04T10:12:30.827Z,2.00
2022-12-04T10:14:17.352Z,2.00
2022-12-04T10:15:32.014Z,1.90
2022-12-04T10:16:48.163Z,1.90
2022-12-04T10:18:23.447Z,1.90
2022-12-04T10:19:33.594Z,2.00
2022-12-04T10:20:52.486Z,2.00
2022-12-04T10:22:07.342Z,2.00
2022-12-04T10:23:26.406Z,2.00
2022-12-04T10:24:43.117Z,2.00
2022-12-04T10:25:46.496Z,2.00
2022-12-04T10:26:49.487Z,1.90
2022-12-04T10:28:03.607Z,1.90
2022-12-04T10:29:14.213Z,1.90
2022-12-04T10:30:22.949Z,1.90
2022-12-04T10:31:26.674Z,2.00
2022-12-04T10:32:33.585Z,2.00
2022-12-04T10:33:43.313Z,2.10
2022-12-04T10:34:50.514Z,2.10
2022-12-04T10:35:56.238Z,2.10
2022-12-04T10:37:03.998Z,2.10
2022-12-04T10:38:15.597Z,2.10
2022-12-04T10:39:35.860Z,2.20
2022-12-04T10:40:46.731Z,2.20
2022-12-04T10:41:55.818Z,2.10
2022-12-04T10:43:13.046Z,2.20
2022-12-04T10:44:17.590Z,2.20
2022-12-04T10:45:26.401Z,2.10
2022-12-04T10:46:45.931Z,2.10
2022-12-04T10:47:52.262Z,2.10
2022-12-04T10:49:05.193Z,2.20
2022-12-04T10:50:17.605Z,2.20
2022-12-04T10:51:36.842Z,2.20
2022-12-04T10:52:41.808Z,2.20
2022-12-04T10:53:49.687Z,2.10
2022-12-04T10:55:01.780Z,2.20
2022-12-04T10:56:12.365Z,2.20
2022-12-04T10:57:16.652Z,2.20
2022-12-04T10:58:27.157Z,2.20
2022-12-04T10:59:55.585Z,2.20
2022-12-04T11:01:14.739Z,2.20
2022-12-04T11:02:22.522Z,2.20
2022-12-04T11:03:30.010Z,2.20
2022-12-04T11:04:36.482Z,2.20
2022-12-04T11:05:53.211Z,2.10
2022-12-04T11:07:04.441Z,2.10
2022-12-04T11:08:14.474Z,2.10
2022-12-04T11:09:24.417Z,2.20
2022-12-04T11:10:34.415Z,2.20
2022-12-04T11:11:36.817Z,2.30
2022-12-04T11:12:40.147Z,2.20
2022-12-04T11:13:42.976Z,2.20
2022-12-04T11:14:47.362Z,2.20
2022-12-04T11:15:52.992Z,2.20
2022-12-04T11:17:06.939Z,2.30
2022-12-04T11:18:19.648Z,2.30
2022-12-04T11:19:25.480Z,2.30
2022-12-04T11:20:31.490Z,2.30
2022-12-04T11:23:37.533Z,2.20
2022-12-04T11:24:42.953Z,2.10
2022-12-04T11:25:48.897Z,2.10
2022-12-04T11:26:54.571Z,2.10
2022-12-04T11:28:02.344Z,2.10
2022-12-04T11:29:06.143Z,2.10
2022-12-04T11:30:15.443Z,2.10
2022-12-04T11:31:25.715Z,2.20
2022-12-04T11:32:35.031Z,2.20
2022-12-04T11:33:42.974Z,2.30
2022-12-04T11:35:10.606Z,2.30
2022-12-04T11:36:25.943Z,2.40
2022-12-04T11:37:32.340Z,2.50
2022-12-04T11:38:38.077Z,2.40
2022-12-04T11:39:48.190Z,2.40
2022-12-04T11:41:05.195Z,2.40
2022-12-04T11:42:33.995Z,2.40
2022-12-04T11:43:38.008Z,2.40
2022-12-04T11:44:50.610Z,2.40
2022-12-04T11:45:59.871Z,2.40
2022-12-04T11:47:10.254Z,2.50
2022-12-04T11:48:26.897Z,2.40
2022-12-04T11:49:44.036Z,2.50
2022-12-04T11:51:58.793Z,2.50
2022-12-04T11:53:19.569Z,2.50
2022-12-04T11:54:37.186Z,2.50
2022-12-04T11:56:19.273Z,2.50
2022-12-04T11:57:31.285Z,2.40
2022-12-04T11:58:57.526Z,2.50
2022-12-04T12:00:10.391Z,2.40
2022-12-04T12:01:31.841Z,2.50
2022-12-04T12:02:45.601Z,2.50
2022-12-04T12:04:06.379Z,2.50
2022-12-04T12:05:32.829Z,2.50
2022-12-04T12:06:38.622Z,2.50
2022-12-04T12:07:51.006Z,2.50
2022-12-04T12:09:07.764Z,2.60
2022-12-04T12:10:18.752Z,2.60
2022-12-04T12:11:34.900Z,2.60
2022-12-04T12:12:51.310Z,2.60
2022-12-04T12:14:08.601Z,2.60
2022-12-04T12:15:25.004Z,2.70
2022-12-04T12:16:37.623Z,2.70
2022-12-04T12:17:47.849Z,2.70
2022-12-04T12:19:08.877Z,2.70
2022-12-04T12:20:21.995Z,2.70
2022-12-04T12:21:26.829Z,2.70
2022-12-04T12:22:47.768Z,2.70
2022-12-04T12:24:05.620Z,2.70
2022-12-04T12:25:19.173Z,2.70
2022-12-04T12:26:25.011Z,2.70
2022-12-04T12:27:47.711Z,2.70
2022-12-04T12:29:18.627Z,2.60
2022-12-04T12:30:24.555Z,2.60
2022-12-04T12:31:41.543Z,2.60
2022-12-04T12:33:06.060Z,2.60
2022-12-04T12:34:13.941Z,2.70
2022-12-04T12:35:29.496Z,2.70
2022-12-04T12:36:43.589Z,2.70
2022-12-04T12:37:51.892Z,2.70
2022-12-04T12:38:57.804Z,2.60
2022-12-04T12:40:07.921Z,2.60
2022-12-04T12:41:13.633Z,2.60
2022-12-04T12:42:22.902Z,2.60
2022-12-04T12:43:30.631Z,2.60
2022-12-04T12:44:45.151Z,2.60
2022-12-04T12:45:54.725Z,2.60
2022-12-04T12:47:11.017Z,2.60
2022-12-04T12:48:26.702Z,2.60
2022-12-04T12:49:36.281Z,2.60
2022-12-04T12:50:44.576Z,2.60
2022-12-04T12:51:52.820Z,2.60
2022-12-04T12:52:58.884Z,2.60
2022-12-04T12:54:13.448Z,2.60
2022-12-04T12:55:23.233Z,2.70
2022-12-04T12:56:33.990Z,2.70
2022-12-04T12:57:40.962Z,2.80
2022-12-04T12:58:51.593Z,2.80
2022-12-04T12:59:59.062Z,2.90
2022-12-04T13:01:09.212Z,2.80
2022-12-04T13:02:27.740Z,2.80
2022-12-04T13:03:42.093Z,2.70
2022-12-04T13:04:50.124Z,2.70
2022-12-04T13:05:57.386Z,2.70
2022-12-04T13:07:12.049Z,2.70
2022-12-04T13:08:21.435Z,2.70
2022-12-04T13:09:29.977Z,2.70
2022-12-04T13:10:39.068Z,2.70
2022-12-04T13:11:44.861Z,2.80
2022-12-04T13:12:53.876Z,2.80
2022-12-04T13:13:59.509Z,2.70
2022-12-04T13:15:02.092Z,2.70
2022-12-04T13:16:10.909Z,2.70
2022-12-04T13:17:19.509Z,2.70
2022-12-04T13:18:28.589Z,2.70
2022-12-04T13:19:37.178Z,2.70
2022-12-04T13:20:46.354Z,2.80
2022-12-04T13:21:57.878Z,2.80
2022-12-04T13:23:15.557Z,2.70
2022-12-04T13:25:02.142Z,2.70
2022-12-04T13:26:18.880Z,2.70
2022-12-04T13:27:33.549Z,2.70
2022-12-04T13:28:47.003Z,2.70
2022-12-04T13:30:09.951Z,2.70
2022-12-04T13:31:25.078Z,2.70
2022-12-04T13:32:59.755Z,2.70
2022-12-04T13:34:43.113Z,2.70
2022-12-04T13:36:11.213Z,2.70
2022-12-04T13:37:32.064Z,2.70
2022-12-04T13:38:55.116Z,2.70
2022-12-04T13:41:26.532Z,2.60
2022-12-04T13:42:29.987Z,2.70
2022-12-04T13:47:45.434Z,2.70
2022-12-04T13:48:49.432Z,2.70
2022-12-04T13:49:56.215Z,2.80
2022-12-04T13:51:09.501Z,2.80
2022-12-04T13:52:28.189Z,2.80
2022-12-04T13:53:48.395Z,2.80
2022-12-04T13:55:12.478Z,2.80
2022-12-04T13:56:29.974Z,2.70
2022-12-04T13:57:33.350Z,2.70
2022-12-04T13:58:36.471Z,2.70
2022-12-04T13:59:41.922Z,2.70
2022-12-04T14:00:44.754Z,2.70
2022-12-04T14:01:51.399Z,2.70
2022-12-04T14:02:58.642Z,2.70
2022-12-04T14:04:02.035Z,2.60
2022-12-04T14:05:07.615Z,2.60
2022-12-04T14:06:23.121Z,2.60
2022-12-04T14:07:32.561Z,2.60
2022-12-04T14:08:39.543Z,2.60
2022-12-04T14:09:49.959Z,2.60
2022-12-04T14:11:02.188Z,2.70
2022-12-04T14:12:11.699Z,2.70
2022-12-04T14:13:21.087Z,2.70
2022-12-04T14:14:27.623Z,2.70
2022-12-04T14:15:33.899Z,2.70
2022-12-04T14:16:39.657Z,2.70
2022-12-04T14:17:43.201Z,2.80
2022-12-04T14:18:48.052Z,2.80
2022-12-04T14:19:54.795Z,2.80
2022-12-04T14:21:05.261Z,2.90
2022-12-04T14:22:28.744Z,2.90
2022-12-04T14:23:42.281Z,2.90
2022-12-04T14:24:45.813Z,2.90
2022-12-04T14:25:48.718Z,2.90
2022-12-04T14:27:11.379Z,2.90
2022-12-04T14:28:27.037Z,2.90
2022-12-04T14:29:40.185Z,2.90
2022-12-04T14:30:45.818Z,2.90
2022-12-04T14:31:49.872Z,2.80
2022-12-04T14:32:56.369Z,2.80
2022-12-04T14:34:01.752Z,2.80
2022-12-04T14:35:06.003Z,2.90
2022-12-04T14:36:15.510Z,2.90
2022-12-04T14:37:32.110Z,3.00
2022-12-04T14:38:34.486Z,3.00
2022-12-04T14:39:44.233Z,3.00
2022-12-04T14:40:51.948Z,3.00
2022-12-04T14:42:07.777Z,3.00
2022-12-04T14:43:18.831Z,3.00
2022-12-04T14:44:27.287Z,3.00
2022-12-04T14:45:58.747Z,3.00
2022-12-04T14:47:16.527Z,3.00
2022-12-04T14:48:33.487Z,3.00
2022-12-04T14:49:46.643Z,3.00
2022-12-04T14:50:58.403Z,3.00
2022-12-04T14:52:10.071Z,3.10
2022-12-04T14:53:25.058Z,3.00
2022-12-04T14:54:37.369Z,3.00
2022-12-04T14:55:52.040Z,3.00
2022-12-04T14:57:12.090Z,3.00
2022-12-04T14:58:31.590Z,3.10
2022-12-04T14:59:45.445Z,3.10
2022-12-04T15:00:51.653Z,3.10
2022-12-04T15:02:06.238Z,3.10
2022-12-04T15:03:15.187Z,3.10
2022-12-04T15:04:30.349Z,3.10
2022-12-04T15:05:45.398Z,3.10
2022-12-04T15:07:00.371Z,3.10
2022-12-04T15:08:13.913Z,3.10
2022-12-04T15:09:47.422Z,3.10
2022-12-04T15:11:10.670Z,3.10
2022-12-04T15:12:34.902Z,3.20
2022-12-04T15:13:58.385Z,3.20
2022-12-04T15:15:20.706Z,3.20
2022-12-04T15:16:35.333Z,3.20
2022-12-04T15:17:47.530Z,3.20
2022-12-04T15:18:58.272Z,3.20
2022-12-04T15:20:23.731Z,3.30
2022-12-04T15:21:42.950Z,3.20
2022-12-04T15:22:48.935Z,3.20
2022-12-04T15:23:52.892Z,3.20
2022-12-04T15:24:59.330Z,3.20
2022-12-04T15:26:14.761Z,3.20
2022-12-04T15:27:32.032Z,3.20
2022-12-04T15:28:43.041Z,3.20
2022-12-04T15:29:49.125Z,3.10
2022-12-04T15:30:55.310Z,3.00
2022-12-04T15:32:08.643Z,3.10
2022-12-04T15:33:21.213Z,3.00
2022-12-04T15:34:31.429Z,3.00
2022-12-04T15:35:36.196Z,3.00
2022-12-04T15:36:47.889Z,3.00
2022-12-04T15:37:50.796Z,3.00
2022-12-04T15:38:54.686Z,3.00
2022-12-04T15:39:58.565Z,3.00
2022-12-04T15:41:05.903Z,3.00
2022-12-04T15:42:17.296Z,3.00
2022-12-04T15:43:41.410Z,3.00
2022-12-04T15:44:57.652Z,3.00
2022-12-04T15:46:17.151Z,3.00
2022-12-04T15:47:22.405Z,2.90
2022-12-04T15:48:27.803Z,2.90
2022-12-04T15:49:32.066Z,2.90
2022-12-04T15:50:40.797Z,2.90
2022-12-04T15:51:49.154Z,2.90
2022-12-04T15:53:14.092Z,2.90
2022-12-04T15:54:24.299Z,2.80
2022-12-04T15:55:29.457Z,2.90
2022-12-04T15:56:32.789Z,2.90
2022-12-04T15:57:38.151Z,2.90
2022-12-04T15:58:41.973Z,2.80
2022-12-04T15:59:49.829Z,2.90
2022-12-04T16:00:58.533Z,2.80
2022-12-04T16:02:21.886Z,2.90
2022-12-04T16:03:29.120Z,2.90
2022-12-04T16:04:44.020Z,2.80
2022-12-04T16:05:49.009Z,2.80
2022-12-04T16:06:53.722Z,2.80
2022-12-04T16:08:09.328Z,2.90
2022-12-04T16:09:22.929Z,2.80
2022-12-04T16:10:28.784Z,2.80
2022-12-04T16:11:35.847Z,2.80
2022-12-04T16:12:38.173Z,2.80
2022-12-04T16:13:41.468Z,2.80
2022-12-04T16:14:45.019Z,2.70
2022-12-04T16:15:47.283Z,2.80
2022-12-04T16:16:53.444Z,2.70
2022-12-04T16:17:56.956Z,2.70
2022-12-04T16:19:00.368Z,2.70
2022-12-04T16:20:06.927Z,2.70
2022-12-04T16:21:16.686Z,2.70
2022-12-04T16:22:24.218Z,2.60
2022-12-04T16:23:27.160Z,2.60
2022-12-04T16:24:32.357Z,2.60
2022-12-04T16:25:35.734Z,2.60
2022-12-04T16:26:38.143Z,2.70
2022-12-04T16:27:41.403Z,2.70
2022-12-04T16:28:44.605Z,2.70
2022-12-04T16:29:48.028Z,2.70
2022-12-04T16:30:51.828Z,2.70
2022-12-04T16:32:02.714Z,2.70
2022-12-04T16:33:05.809Z,2.60
2022-12-04T16:34:10.588Z,2.70
2022-12-04T16:35:18.362Z,2.70
2022-12-04T16:36:21.828Z,2.70
2022-12-04T16:37:25.807Z,2.70
2022-12-04T16:38:29.337Z,2.70
2022-12-04T16:39:36.873Z,2.60
2022-12-04T16:40:43.302Z,2.60
2022-12-04T16:41:46.585Z,2.60
2022-12-04T16:42:48.954Z,2.60
2022-12-04T16:43:56.973Z,2.60
2022-12-04T16:45:00.456Z,2.50
2022-12-04T16:46:03.928Z,2.50
2022-12-04T16:47:09.618Z,2.50
2022-12-04T16:48:11.958Z,2.50
2022-12-04T16:49:15.476Z,2.50
2022-12-04T16:50:19.114Z,2.60
2022-12-04T16:51:25.336Z,2.50
2022-12-04T16:52:28.610Z,2.50
2022-12-04T16:53:31.089Z,2.40
2022-12-04T16:54:34.781Z,2.40
2022-12-04T16:55:40.808Z,2.40
2022-12-04T16:56:53.277Z,2.40
2022-12-04T16:57:55.711Z,2.40
2022-12-04T16:58:59.177Z,2.40
2022-12-04T17:00:02.428Z,2.40
2022-12-04T17:01:07.673Z,2.40
2022-12-04T17:02:19.159Z,2.40
2022-12-04T17:03:27.369Z,2.40
2022-12-04T17:04:31.417Z,2.40
2022-12-04T17:05:35.845Z,2.40
2022-12-04T17:06:39.383Z,2.40
2022-12-04T17:07:42.737Z,2.40
2022-12-04T17:08:46.587Z,2.30
2022-12-04T17:09:50.105Z,2.30
2022-12-04T17:10:52.892Z,2.30
2022-12-04T17:11:56.302Z,2.30
2022-12-04T17:12:58.479Z,2.40
2022-12-04T17:14:02.979Z,2.40
2022-12-04T17:15:06.304Z,2.40
2022-12-04T17:16:13.980Z,2.40
2022-12-04T17:17:18.929Z,2.40
2022-12-04T17:18:22.384Z,2.40
2022-12-04T17:19:26.083Z,2.50
2022-12-04T17:20:30.280Z,2.50
2022-12-04T17:21:32.962Z,2.50
2022-12-04T17:22:36.231Z,2.50
2022-12-04T17:23:38.738Z,2.50
2022-12-04T17:24:49.071Z,2.60
2022-12-04T17:25:54.253Z,2.60
2022-12-04T17:26:58.289Z,2.50
2022-12-04T17:28:00.953Z,2.50
2022-12-04T17:29:04.963Z,2.60
2022-12-04T17:30:09.471Z,2.60
2022-12-04T17:31:17.807Z,2.60
2022-12-04T17:32:21.818Z,2.70
2022-12-04T17:33:25.125Z,2.70
2022-12-04T17:34:28.932Z,2.70
2022-12-04T17:35:33.057Z,2.70
2022-12-04T17:36:39.695Z,2.60
2022-12-04T17:37:43.030Z,2.60
2022-12-04T17:38:45.577Z,2.60
2022-12-04T17:39:49.097Z,2.50
2022-12-04T17:41:00.754Z,2.50
2022-12-04T17:42:03.140Z,2.50
2022-12-04T17:43:08.641Z,2.60
2022-12-04T17:44:12.127Z,2.60
2022-12-04T17:45:14.785Z,2.60
2022-12-04T17:46:21.636Z,2.60
2022-12-04T17:47:26.752Z,2.60
2022-12-04T17:52:40.437Z,2.60
2022-12-04T17:53:44.541Z,2.60
2022-12-04T17:54:49.349Z,2.60
2022-12-04T18:02:36.575Z,2.60
2022-12-04T18:06:17.687Z,2.60
2022-12-04T18:08:34.295Z,2.60
2022-12-04T19:07:56.231Z,2.60
2022-12-04T19:09:15.902Z,2.60
2022-12-04T19:10:33.148Z,2.70
2022-12-04T19:12:11.443Z,2.70
2022-12-04T19:13:38.481Z,2.70
2022-12-04T19:15:47.529Z,2.70
2022-12-04T19:16:55.779Z,2.70
2022-12-04T19:17:58.293Z,2.80
2022-12-04T19:19:02.508Z,2.70
2022-12-04T19:20:39.406Z,2.70
2022-12-04T19:22:05.332Z,2.60
2022-12-04T19:23:13.527Z,2.60
2022-12-04T19:24:28.289Z,2.60
2022-12-04T19:25:35.824Z,2.60
2022-12-04T19:27:35.995Z,2.50
2022-12-04T19:28:39.301Z,2.60
2022-12-04T19:29:42.767Z,2.60
2022-12-04T19:30:46.071Z,2.60
2022-12-04T19:31:48.111Z,2.60
2022-12-04T19:32:51.427Z,2.60
2022-12-04T19:33:56.867Z,2.60
2022-12-04T19:35:00.245Z,2.50
2022-12-04T19:36:04.114Z,2.60
2022-12-04T19:37:07.819Z,2.60
2022-12-04T19:38:12.163Z,2.50
2022-12-04T19:39:15.153Z,2.50
2022-12-04T19:40:17.207Z,2.60
2022-12-04T19:41:22.477Z,2.60
2022-12-04T19:42:25.581Z,2.60
2022-12-04T19:43:28.008Z,2.60
2022-12-04T19:45:54.318Z,2.60
2022-12-04T19:46:57.741Z,2.60
2022-12-04T19:48:00.852Z,2.60
2022-12-04T19:49:07.038Z,2.70
2022-12-04T19:50:10.048Z,2.60
2022-12-04T19:51:14.997Z,2.60
2022-12-04T19:52:18.483Z,2.60
2022-12-04T19:53:21.998Z,2.60
2022-12-04T19:54:25.583Z,2.70
2022-12-04T19:55:28.670Z,2.70
2022-12-04T19:56:32.192Z,2.70
2022-12-04T19:57:35.310Z,2.70
2022-12-04T19:58:37.560Z,2.70
2022-12-04T19:59:45.674Z,2.60
2022-12-04T20:00:49.613Z,2.70
2022-12-04T20:01:52.782Z,2.60
2022-12-04T20:02:54.988Z,2.60
2022-12-04T20:03:58.946Z,2.60
2022-12-04T20:05:02.149Z,2.60
2022-12-04T20:06:05.785Z,2.70
2022-12-04T20:07:09.023Z,2.60
2022-12-04T20:09:16.237Z,2.70
2022-12-04T20:10:20.894Z,2.60
2022-12-04T20:11:24.145Z,2.70
2022-12-04T20:12:26.146Z,2.60
2022-12-04T20:13:29.268Z,2.70
2022-12-04T20:14:31.426Z,2.70
2022-12-04T20:15:36.821Z,2.70
2022-12-04T20:16:39.925Z,2.70
2022-12-04T20:17:43.121Z,2.70
2022-12-04T20:18:45.336Z,2.70
2022-12-04T20:19:48.419Z,2.60
2022-12-04T20:20:55.403Z,2.60
2022-12-04T20:21:59.636Z,2.60
2022-12-04T20:23:01.717Z,2.50
2022-12-04T20:24:06.697Z,2.60
2022-12-04T20:25:10.312Z,2.60
2022-12-04T20:26:15.286Z,2.60
2022-12-04T20:27:19.009Z,2.60
2022-12-04T20:28:21.843Z,2.60
2022-12-04T20:29:24.967Z,2.70
2022-12-04T20:30:29.356Z,2.60
2022-12-04T20:31:33.678Z,2.60
2022-12-04T20:32:36.734Z,2.60
2022-12-04T20:33:38.780Z,2.70
2022-12-04T20:34:43.682Z,2.70
2022-12-04T20:35:46.148Z,2.60
2022-12-04T20:36:50.091Z,2.70
2022-12-04T20:37:53.064Z,2.70
2022-12-04T20:38:58.107Z,2.70
2022-12-04T20:40:02.318Z,2.70
2022-12-04T20:41:07.632Z,2.70
2022-12-04T20:42:09.598Z,2.70
2022-12-04T20:43:12.736Z,2.70
2022-12-04T20:44:18.934Z,2.70
2022-12-04T20:45:22.043Z,2.70
2022-12-04T20:46:27.407Z,2.60
2022-12-04T20:47:30.621Z,2.50
2022-12-04T20:48:32.675Z,2.50
2022-12-04T20:49:35.743Z,2.60
2022-12-04T20:50:39.199Z,2.60
2022-12-04T20:51:44.267Z,2.50
2022-12-04T20:52:47.422Z,2.50
2022-12-04T20:53:50.607Z,2.50
2022-12-04T20:54:53.699Z,2.50
2022-12-04T20:55:56.599Z,2.50
2022-12-04T20:57:01.069Z,2.40
2022-12-04T20:58:03.877Z,2.40
2022-12-04T20:59:08.827Z,2.30
2022-12-04T21:00:13.060Z,2.40
2022-12-04T21:01:16.749Z,2.40
2022-12-04T21:02:19.923Z,2.40
2022-12-04T21:03:23.321Z,2.40
2022-12-04T21:04:26.384Z,2.40
2022-12-04T21:05:29.352Z,2.30
2022-12-04T21:06:35.881Z,2.30
2022-12-04T21:07:39.001Z,2.30
2022-12-04T21:08:53.220Z,2.30
2022-12-04T21:09:56.586Z,2.30
2022-12-04T21:10:58.778Z,2.30
2022-12-04T21:12:03.164Z,2.30
2022-12-04T21:13:23.604Z,2.30
2022-12-04T21:14:45.922Z,2.30
2022-12-04T21:16:04.871Z,2.40
2022-12-04T21:17:09.972Z,2.40
2022-12-04T21:18:11.982Z,2.40
2022-12-04T21:19:16.794Z,2.40
2022-12-04T21:20:20.152Z,2.40
2022-12-04T21:21:22.270Z,2.40
2022-12-04T21:22:25.204Z,2.40
2022-12-04T21:23:28.484Z,2.50
2022-12-04T21:24:36.490Z,2.50
2022-12-04T21:25:39.572Z,2.40
2022-12-04T21:26:41.680Z,2.40
2022-12-04T21:27:45.988Z,2.40
2022-12-04T21:28:48.296Z,2.40
2022-12-04T21:29:51.789Z,2.40
2022-12-04T21:30:59.686Z,2.40
2022-12-04T21:32:03.224Z,2.40
2022-12-04T21:33:05.425Z,2.40
2022-12-04T21:34:11.185Z,2.40
2022-12-04T21:35:14.329Z,2.40
2022-12-04T21:36:16.756Z,2.50
2022-12-04T21:37:20.006Z,2.50
2022-12-04T21:38:22.119Z,2.50
2022-12-04T21:39:25.665Z,2.50
2022-12-04T21:40:27.565Z,2.60
2022-12-04T21:41:50.585Z,2.60
2022-12-04T21:42:54.929Z,2.60
2022-12-04T21:43:57.006Z,2.60
2022-12-04T21:45:00.270Z,2.50
2022-12-04T21:46:09.031Z,2.50
2022-12-04T21:47:12.943Z,2.50
2022-12-04T21:48:16.112Z,2.50
2022-12-04T21:49:21.394Z,2.60
2022-12-04T21:50:25.244Z,2.60
2022-12-04T21:51:55.849Z,2.60
2022-12-04T21:52:50.677Z,2.60
2022-12-04T21:53:54.502Z,2.50
2022-12-04T21:54:58.202Z,2.50
2022-12-04T21:56:00.344Z,2.50
2022-12-04T21:57:03.473Z,2.50
2022-12-04T21:58:07.168Z,2.50
2022-12-04T21:59:10.836Z,2.50
2022-12-04T22:00:15.637Z,2.50
2022-12-04T22:01:20.763Z,2.50
2022-12-04T22:02:24.324Z,2.50
2022-12-04T22:03:26.516Z,2.50
2022-12-04T22:04:29.950Z,2.40
2022-12-04T22:05:32.150Z,2.40
2022-12-04T22:06:36.371Z,2.30
2022-12-04T22:07:39.551Z,2.30
2022-12-04T22:08:42.137Z,2.40
2022-12-04T22:09:45.303Z,2.40
2022-12-04T22:10:47.807Z,2.40
2022-12-04T22:11:51.064Z,2.50
2022-12-04T22:12:53.292Z,2.50
2022-12-04T22:13:57.984Z,2.50
2022-12-04T22:15:00.252Z,2.50
2022-12-04T22:16:04.491Z,2.40
2022-12-04T22:17:07.570Z,2.30
2022-12-04T22:18:10.587Z,2.40
2022-12-04T22:19:14.532Z,2.40
2022-12-04T22:20:17.189Z,2.40
2022-12-04T22:21:21.234Z,2.40
2022-12-04T22:22:32.552Z,2.50
2022-12-04T22:23:39.016Z,2.40
2022-12-04T22:24:54.291Z,2.50
2022-12-04T22:32:01.866Z,2.40
2022-12-04T22:33:48.940Z,2.40
2022-12-04T22:35:02.933Z,2.30
2022-12-04T22:36:45.280Z,2.30
2022-12-04T23:02:20.513Z,2.40
2022-12-04T23:03:22.889Z,2.40
2022-12-04T23:04:26.078Z,2.30
2022-12-04T23:05:28.326Z,2.20
2022-12-04T23:06:33.359Z,2.20
2022-12-04T23:07:35.580Z,2.10
2022-12-04T23:08:39.830Z,2.10
2022-12-04T23:09:42.046Z,2.10
2022-12-04T23:10:45.531Z,2.10
2022-12-04T23:11:51.176Z,2.10
2022-12-04T23:12:54.312Z,2.10
2022-12-04T23:14:00.045Z,2.10
2022-12-04T23:15:03.149Z,2.20
2022-12-04T23:16:09.436Z,2.20
2022-12-04T23:17:13.184Z,2.30
2022-12-04T23:18:16.656Z,2.30
2022-12-04T23:19:21.100Z,2.30
2022-12-04T23:20:23.208Z,2.30
2022-12-04T23:21:26.933Z,2.40
2022-12-04T23:22:30.174Z,2.30
2022-12-04T23:23:33.983Z,2.30
2022-12-04T23:24:38.600Z,2.30
2022-12-04T23:25:41.287Z,2.30
2022-12-04T23:26:46.581Z,2.30
2022-12-04T23:27:48.904Z,2.30
2022-12-04T23:28:52.423Z,2.30
2022-12-04T23:29:54.577Z,2.30
2022-12-04T23:30:58.010Z,2.30
2022-12-04T23:32:00.368Z,2.30
2022-12-04T23:33:03.952Z,2.20
2022-12-04T23:34:07.405Z,2.20
2022-12-04T23:35:11.021Z,2.20
2022-12-04T23:36:13.881Z,2.30
2022-12-04T23:37:17.108Z,2.30
2022-12-04T23:38:19.280Z,2.30
2022-12-04T23:39:22.469Z,2.30
2022-12-04T23:40:24.702Z,2.40
2022-12-04T23:41:29.536Z,2.40
2022-12-04T23:42:32.069Z,2.30
2022-12-04T23:43:36.347Z,2.30
2022-12-04T23:44:40.565Z,2.30
2022-12-04T23:45:44.064Z,2.40
2022-12-04T23:46:46.235Z,2.30
2022-12-04T23:47:49.310Z,2.20
2022-12-04T23:48:51.762Z,2.20
2022-12-04T23:49:56.731Z,2.20
2022-12-04T23:50:59.096Z,2.10
2022-12-04T23:52:02.432Z,2.20
2022-12-04T23:53:04.621Z,2.10
2022-12-04T23:54:07.852Z,2.10
2022-12-04T23:55:10.227Z,2.10
2022-12-04T23:56:16.176Z,2.00
2022-12-04T23:57:18.468Z,2.10
2022-12-04T23:58:21.554Z,2.10
2022-12-04T23:59:23.597Z,2.10
